createdAt,value
2019-03-25T00:04:11.957Z,5.13
2019-03-25T00:10:18.687Z,6.10
2019-03-25T00:16:25.639Z,5.33
2019-03-25T00:22:32.335Z,4.77
2019-03-25T00:28:38.921Z,4.87
2019-03-25T00:34:45.492Z,4.00
2019-03-25T00:40:53.154Z,4.23
2019-03-25T00:46:59.831Z,4.73
2019-03-25T00:53:06.650Z,4.47
2019-03-25T00:59:13.346Z,5.20
2019-03-25T01:05:20.417Z,4.80
2019-03-25T01:11:27.594Z,4.93
2019-03-25T01:17:34.324Z,5.60
2019-03-25T01:23:41.063Z,4.80
2019-03-25T01:29:47.744Z,5.13
2019-03-25T01:35:54.415Z,4.70
2019-03-25T01:42:01.404Z,5.43
2019-03-25T01:48:07.986Z,5.60
2019-03-25T01:54:14.852Z,5.60
2019-03-25T02:00:21.601Z,6.33
2019-03-25T02:06:28.170Z,5.57
2019-03-25T02:12:35.118Z,6.13
2019-03-25T02:18:41.678Z,5.67
2019-03-25T02:24:48.223Z,5.60
2019-03-25T02:30:55.283Z,6.90
2019-03-25T02:37:01.943Z,6.03
2019-03-25T02:43:10.391Z,6.83
2019-03-25T02:49:17.130Z,5.60
2019-03-25T02:55:23.692Z,6.80
2019-03-25T03:01:30.421Z,5.73
2019-03-25T03:07:37.178Z,5.53
2019-03-25T03:13:43.786Z,5.73
2019-03-25T03:19:50.493Z,5.97
2019-03-25T03:25:58.291Z,5.70
2019-03-25T03:32:05.137Z,6.50
2019-03-25T03:38:11.698Z,6.33
2019-03-25T03:44:18.289Z,6.50
2019-03-25T03:50:29.323Z,5.30
2019-03-25T03:56:35.798Z,4.80
2019-03-25T04:02:42.433Z,5.27
2019-03-25T04:08:49.057Z,5.50
2019-03-25T04:14:55.602Z,6.13
2019-03-25T04:21:02.195Z,8.30
2019-03-25T04:27:08.765Z,8.20
2019-03-25T04:33:15.337Z,7.53
2019-03-25T04:39:21.876Z,6.27
2019-03-25T04:45:28.433Z,6.90
2019-03-25T04:51:35.083Z,6.07
2019-03-25T04:57:41.756Z,5.87
2019-03-25T05:03:48.605Z,4.73
2019-03-25T05:09:55.217Z,5.13
2019-03-25T05:16:01.870Z,4.03
2019-03-25T05:22:10.934Z,3.30
2019-03-25T05:28:17.016Z,3.40
2019-03-25T05:34:23.855Z,3.63
2019-03-25T05:40:30.406Z,3.27
2019-03-25T05:46:37.159Z,4.10
2019-03-25T05:52:43.913Z,4.53
2019-03-25T05:58:50.476Z,3.40
2019-03-25T06:04:57.171Z,4.37
2019-03-25T06:11:03.764Z,4.13
2019-03-25T06:17:10.671Z,4.60
2019-03-25T06:23:17.265Z,3.80
2019-03-25T06:29:23.904Z,3.70
2019-03-25T06:35:30.589Z,3.70
2019-03-25T06:41:37.186Z,3.90
2019-03-25T06:47:43.783Z,4.00
2019-03-25T06:53:50.395Z,3.90
2019-03-25T06:59:57.220Z,4.47
2019-03-25T07:06:03.828Z,4.13
2019-03-25T07:12:10.549Z,4.13
2019-03-25T07:18:17.323Z,4.43
2019-03-25T07:24:24.842Z,4.17
2019-03-25T07:30:31.598Z,5.13
2019-03-25T07:36:38.337Z,4.87
2019-03-25T07:42:45.237Z,4.23
2019-03-25T07:48:51.880Z,5.07
2019-03-25T07:54:58.484Z,4.77
2019-03-25T08:01:05.375Z,5.17
2019-03-25T08:07:12.051Z,4.37
2019-03-25T08:13:18.704Z,3.20
2019-03-25T08:19:25.542Z,3.40
2019-03-25T08:25:32.155Z,2.60
2019-03-25T08:31:38.993Z,2.13
2019-03-25T08:37:45.745Z,2.67
2019-03-25T08:43:52.366Z,3.20
2019-03-25T08:49:59.004Z,3.23
2019-03-25T08:56:05.857Z,3.80
2019-03-25T09:02:12.467Z,3.13
2019-03-25T09:08:19.086Z,2.53
2019-03-25T09:14:25.907Z,2.63
2019-03-25T09:20:32.584Z,1.50
2019-03-25T09:26:39.390Z,2.60
2019-03-25T09:32:46.009Z,2.23
2019-03-25T09:38:52.966Z,4.97
2019-03-25T09:44:59.546Z,4.17
2019-03-25T09:51:06.717Z,4.30
2019-03-25T09:57:13.376Z,3.77
2019-03-25T10:03:20.034Z,3.00
2019-03-25T10:09:26.652Z,3.00
2019-03-25T10:15:33.820Z,4.07
2019-03-25T10:21:40.561Z,2.70
2019-03-25T10:27:47.505Z,2.20
2019-03-25T10:33:54.103Z,2.27
2019-03-25T10:40:00.821Z,3.00
2019-03-25T10:46:07.620Z,3.23
2019-03-25T10:52:14.278Z,1.50
2019-03-25T10:58:20.978Z,2.30
2019-03-25T11:04:27.923Z,1.83
2019-03-25T11:10:34.727Z,1.40
2019-03-25T11:16:41.416Z,1.87
2019-03-25T11:22:48.065Z,1.73
2019-03-25T11:28:54.964Z,2.00
2019-03-25T11:35:01.636Z,2.60
2019-03-25T11:41:08.668Z,2.23
2019-03-25T11:47:15.786Z,3.30
2019-03-25T11:53:22.431Z,2.83
2019-03-25T11:59:29.227Z,3.50
2019-03-25T12:05:35.955Z,2.77
2019-03-25T12:11:42.732Z,2.27
2019-03-25T12:17:49.402Z,2.60
2019-03-25T12:23:55.989Z,2.13
2019-03-25T12:30:02.621Z,2.47
2019-03-25T12:36:09.706Z,2.20
2019-03-25T12:42:16.565Z,1.73
2019-03-25T12:48:25.263Z,1.80
2019-03-25T12:54:32.050Z,2.80
2019-03-25T13:00:43.489Z,2.57
2019-03-25T13:06:50.585Z,1.60
2019-03-25T13:12:58.605Z,1.60
2019-03-25T13:19:05.373Z,2.17
2019-03-25T13:25:12.167Z,2.13
2019-03-25T13:31:18.852Z,2.27
2019-03-25T13:37:25.503Z,2.80
2019-03-25T13:43:32.197Z,3.03
2019-03-25T13:49:38.983Z,3.67
2019-03-25T13:55:45.685Z,2.93
2019-03-25T14:01:52.461Z,3.70
2019-03-25T14:07:59.127Z,3.03
2019-03-25T14:14:05.719Z,3.00
2019-03-25T14:20:12.608Z,2.20
2019-03-25T14:26:19.210Z,2.30
2019-03-25T14:32:25.964Z,3.37
2019-03-25T14:38:32.724Z,2.33
2019-03-25T14:44:39.456Z,3.20
2019-03-25T14:50:46.130Z,3.60
2019-03-25T14:56:52.887Z,2.67
2019-03-25T15:02:59.601Z,3.23
2019-03-25T15:09:08.769Z,3.40
2019-03-25T15:15:15.788Z,3.10
2019-03-25T15:21:22.678Z,3.00
2019-03-25T15:27:29.355Z,2.40
2019-03-25T15:33:35.967Z,2.60
2019-03-25T15:39:46.878Z,3.03
2019-03-25T15:45:52.160Z,3.90
2019-03-25T15:51:59.053Z,3.70
2019-03-25T15:58:05.656Z,2.47
2019-03-25T16:04:12.273Z,3.03
2019-03-25T16:10:19.617Z,2.73
2019-03-25T16:16:26.754Z,3.00
2019-03-25T16:22:33.441Z,2.60
2019-03-25T16:28:40.111Z,2.10
2019-03-25T16:34:46.696Z,1.73
2019-03-25T16:40:53.295Z,1.77
2019-03-25T16:47:00.137Z,1.90
2019-03-25T16:53:06.757Z,1.80
2019-03-25T16:59:13.679Z,2.37
2019-03-25T17:05:20.420Z,1.80
2019-03-25T17:11:27.116Z,1.77
2019-03-25T17:17:34.224Z,1.97
2019-03-25T17:23:40.905Z,1.80
2019-03-25T17:29:47.501Z,1.30
2019-03-25T17:35:54.177Z,2.33
2019-03-25T17:42:01.200Z,1.80
2019-03-25T17:48:08.062Z,1.33
2019-03-25T17:54:15.754Z,1.70
2019-03-25T18:01:00.090Z,1.50
2019-03-25T18:07:07.623Z,2.23
2019-03-25T18:13:22.410Z,1.60
2019-03-25T18:19:22.683Z,1.80
2019-03-25T18:25:29.616Z,2.00
2019-03-25T18:31:43.172Z,2.20
2019-03-25T18:37:44.757Z,1.77
2019-03-25T18:43:51.679Z,2.67
2019-03-25T18:49:58.525Z,1.83
2019-03-25T18:56:05.227Z,2.53
2019-03-25T19:02:11.881Z,2.13
2019-03-25T19:08:18.501Z,2.60
2019-03-25T19:14:25.263Z,2.43
2019-03-25T19:20:32.005Z,5.30
2019-03-25T19:26:38.774Z,2.73
2019-03-25T19:32:51.052Z,3.30
2019-03-25T19:38:58.020Z,2.60
2019-03-25T19:45:05.257Z,2.47
2019-03-25T19:51:12.286Z,2.80
2019-03-25T19:57:19.389Z,2.53
2019-03-25T20:03:26.152Z,2.83
2019-03-25T20:09:33.990Z,2.37
2019-03-25T20:15:46.606Z,2.80
2019-03-25T20:21:49.229Z,3.33
2019-03-25T20:27:58.810Z,3.07
2019-03-25T20:34:11.158Z,2.40
2019-03-25T20:40:15.337Z,2.53
2019-03-25T20:46:22.082Z,3.03
2019-03-25T20:52:29.136Z,3.20
2019-03-25T20:58:36.387Z,2.83
2019-03-25T21:04:43.026Z,3.00
2019-03-25T21:10:49.760Z,2.83
2019-03-25T21:16:56.442Z,2.87
2019-03-25T21:23:03.247Z,2.37
2019-03-25T21:29:10.328Z,3.47
2019-03-25T21:35:17.401Z,4.00
2019-03-25T21:41:24.065Z,3.73
2019-03-25T21:47:30.774Z,2.53
2019-03-25T21:53:37.439Z,4.07
2019-03-25T21:59:44.068Z,2.93
2019-03-25T22:05:50.888Z,3.37
2019-03-25T22:11:57.567Z,3.10
2019-03-25T22:18:04.221Z,3.10
2019-03-25T22:24:11.410Z,3.10
2019-03-25T22:30:18.186Z,2.67
2019-03-25T22:36:24.791Z,2.90
2019-03-25T22:42:31.386Z,4.30
2019-03-25T22:48:38.045Z,3.20
2019-03-25T22:54:44.691Z,3.10
2019-03-25T23:00:51.413Z,4.10
2019-03-25T23:06:58.023Z,3.40
2019-03-25T23:13:04.574Z,3.60
2019-03-25T23:19:11.284Z,3.43
2019-03-25T23:25:18.185Z,2.80
2019-03-25T23:31:25.092Z,3.30
2019-03-25T23:37:31.706Z,3.30
2019-03-25T23:43:38.313Z,3.27
2019-03-25T23:49:45.010Z,3.53
2019-03-25T23:55:51.611Z,3.23
